Time,TemperatureF,DewpointF,PressureIn,WindDirection,WindDirectionDegrees,WindSpeedMPH,WindSpeedGustMPH,Humidity,HourlyPrecipIn,Conditions,Clouds,dailyrainin,SoftwareType,DateUTC
2013-03-30 00:02:00,37.0,25.0,30.22,West,263,0.0,1.0,62,0.00,,,0.00,,2013-03-30 04:02:00,
2013-03-30 00:13:00,37.0,25.0,30.22,West,263,0.0,1.0,62,0.00,,,0.00,,2013-03-30 04:13:00,
2013-03-30 00:23:00,35.0,25.0,30.22,West,260,0.0,0.0,66,0.00,,,0.00,,2013-03-30 04:23:00,
2013-03-30 00:33:00,34.0,25.0,30.21,West,260,0.0,0.0,70,0.00,,,0.00,,2013-03-30 04:33:00,
2013-03-30 00:43:00,34.0,25.0,30.21,West,260,0.0,0.0,70,0.00,,,0.00,,2013-03-30 04:43:00,
2013-03-30 00:53:00,33.0,25.0,30.22,West,260,0.0,0.0,71,0.00,,,0.00,,2013-03-30 04:53:00,
2013-03-30 01:02:00,32.0,25.0,30.21,West,259,0.0,0.0,75,0.00,,,0.00,,2013-03-30 05:02:00,
2013-03-30 01:12:00,32.0,25.0,30.21,West,259,0.0,0.0,75,0.00,,,0.00,,2013-03-30 05:12:00,
2013-03-30 01:22:00,31.0,24.0,30.21,WSW,257,0.0,0.0,76,0.00,,,0.00,,2013-03-30 05:22:00,
2013-03-30 01:32:00,31.0,24.0,30.21,WSW,257,0.0,0.0,76,0.00,,,0.00,,2013-03-30 05:32:00,
2013-03-30 01:42:00,31.0,24.0,30.21,WSW,257,0.0,0.0,76,0.00,,,0.00,,2013-03-30 05:42:00,
2013-03-30 01:52:00,31.0,25.0,30.21,West,269,0.0,1.0,78,0.00,,,0.00,,2013-03-30 05:52:00,
2013-03-30 02:02:00,30.0,24.0,30.21,West,269,0.0,0.0,79,0.00,,,0.00,,2013-03-30 06:02:00,
2013-03-30 02:12:00,30.0,24.0,30.21,West,269,0.0,0.0,79,0.00,,,0.00,,2013-03-30 06:12:00,
2013-03-30 02:23:00,30.0,24.0,30.21,West,267,0.0,0.0,79,0.00,,,0.00,,2013-03-30 06:23:00,
2013-03-30 02:32:00,29.0,24.0,30.21,West,267,0.0,0.0,80,0.00,,,0.00,,2013-03-30 06:32:00,
2013-03-30 02:42:00,29.0,24.0,30.21,West,267,0.0,0.0,80,0.00,,,0.00,,2013-03-30 06:42:00,
2013-03-30 02:52:00,27.0,22.0,30.21,West,267,0.0,0.0,81,0.00,,,0.00,,2013-03-30 06:52:00,
2013-03-30 03:02:00,27.0,23.0,30.21,West,267,0.0,0.0,86,0.00,,,0.00,,2013-03-30 07:02:00,
2013-03-30 03:12:00,27.0,23.0,30.21,West,267,0.0,0.0,86,0.00,,,0.00,,2013-03-30 07:12:00,
2013-03-30 03:22:00,27.0,23.0,30.21,West,267,0.0,0.0,85,0.00,,,0.00,,2013-03-30 07:22:00,
2013-03-30 03:32:00,27.0,23.0,30.21,West,267,0.0,0.0,86,0.00,,,0.00,,2013-03-30 07:32:00,
2013-03-30 03:42:00,27.0,23.0,30.21,West,267,0.0,0.0,86,0.00,,,0.00,,2013-03-30 07:42:00,
2013-03-30 03:52:00,27.0,23.0,30.21,West,266,0.0,0.0,85,0.00,,,0.00,,2013-03-30 07:52:00,
2013-03-30 04:02:00,28.0,24.0,30.21,West,266,0.0,0.0,85,0.00,,,0.00,,2013-03-30 08:02:00,
2013-03-30 04:12:00,28.0,24.0,30.21,West,266,0.0,0.0,85,0.00,,,0.00,,2013-03-30 08:12:00,
2013-03-30 04:22:00,27.0,23.0,30.21,West,267,0.0,0.0,85,0.00,,,0.00,,2013-03-30 08:22:00,
2013-03-30 04:32:00,26.0,23.0,30.21,West,267,0.0,0.0,87,0.00,,,0.00,,2013-03-30 08:32:00,
2013-03-30 04:42:00,26.0,23.0,30.21,West,267,0.0,0.0,87,0.00,,,0.00,,2013-03-30 08:42:00,
2013-03-30 04:53:00,26.0,23.0,30.21,WSW,251,0.0,0.0,88,0.00,,,0.00,,2013-03-30 08:53:00,
2013-03-30 05:02:00,27.0,24.0,30.21,West,276,0.0,0.0,87,0.00,,,0.00,,2013-03-30 09:02:00,
2013-03-30 05:12:00,27.0,24.0,30.21,West,276,0.0,0.0,87,0.00,,,0.00,,2013-03-30 09:12:00,
2013-03-30 05:22:00,26.0,23.0,30.21,West,276,0.0,0.0,87,0.00,,,0.00,,2013-03-30 09:22:00,
2013-03-30 05:33:00,25.0,22.0,30.21,West,276,0.0,0.0,88,0.00,,,0.00,,2013-03-30 09:33:00,
2013-03-30 05:43:00,25.0,22.0,30.21,West,276,0.0,0.0,88,0.00,,,0.00,,2013-03-30 09:43:00,
2013-03-30 05:54:00,24.0,21.0,30.21,West,276,0.0,0.0,88,0.00,,,0.00,,2013-03-30 09:54:00,
2013-03-30 06:03:00,25.0,22.0,30.22,West,276,0.0,0.0,89,0.00,,,0.00,,2013-03-30 10:03:00,
2013-03-30 06:13:00,25.0,22.0,30.22,West,276,0.0,0.0,89,0.00,,,0.00,,2013-03-30 10:13:00,
2013-03-30 06:23:00,25.0,22.0,30.22,West,276,0.0,0.0,90,0.00,,,0.00,,2013-03-30 10:23:00,
2013-03-30 06:33:00,24.0,22.0,30.22,West,275,0.0,0.0,90,0.00,,,0.00,,2013-03-30 10:33:00,
2013-03-30 06:42:00,24.0,22.0,30.22,West,275,0.0,0.0,90,0.00,,,0.00,,2013-03-30 10:42:00,
2013-03-30 06:52:00,24.0,22.0,30.22,West,276,0.0,0.0,90,0.00,,,0.00,,2013-03-30 10:52:00,
2013-03-30 07:03:00,23.0,21.0,30.22,West,275,0.0,0.0,91,0.00,,,0.00,,2013-03-30 11:03:00,
2013-03-30 07:12:00,23.0,21.0,30.22,West,275,0.0,0.0,91,0.00,,,0.00,,2013-03-30 11:12:00,
2013-03-30 07:23:00,23.0,21.0,30.23,West,276,0.0,0.0,91,0.00,,,0.00,,2013-03-30 11:23:00,
2013-03-30 07:33:00,23.0,21.0,30.23,West,276,0.0,0.0,92,0.00,,,0.00,,2013-03-30 11:33:00,
2013-03-30 07:42:00,23.0,21.0,30.23,West,276,0.0,0.0,92,0.00,,,0.00,,2013-03-30 11:42:00,
2013-03-30 07:53:00,24.0,22.0,30.23,West,262,0.0,0.0,92,0.00,,,0.00,,2013-03-30 11:53:00,
2013-03-30 08:02:00,25.0,23.0,30.23,West,259,0.0,0.0,91,0.00,,,0.00,,2013-03-30 12:02:00,
2013-03-30 08:13:00,25.0,23.0,30.23,West,259,0.0,0.0,91,0.00,,,0.00,,2013-03-30 12:13:00,
2013-03-30 08:22:00,28.0,25.0,30.24,West,260,0.0,0.0,90,0.00,,,0.00,,2013-03-30 12:22:00,
2013-03-30 08:32:00,29.0,26.0,30.24,East,96,0.0,0.0,87,0.00,,,0.00,,2013-03-30 12:32:00,
2013-03-30 08:42:00,29.0,26.0,30.24,East,96,0.0,0.0,87,0.00,,,0.00,,2013-03-30 12:42:00,
2013-03-30 08:53:00,33.0,28.0,30.24,NNE,33,0.0,0.0,81,0.00,,,0.00,,2013-03-30 12:53:00,
2013-03-30 09:02:00,34.0,27.0,30.25,East,81,0.0,0.0,75,0.00,,,0.00,,2013-03-30 13:02:00,
2013-03-30 09:12:00,34.0,27.0,30.25,East,81,0.0,0.0,75,0.00,,,0.00,,2013-03-30 13:12:00,
2013-03-30 09:22:00,34.0,27.0,30.25,East,98,0.0,0.0,75,0.00,,,0.00,,2013-03-30 13:22:00,
2013-03-30 09:32:00,37.0,28.0,30.26,East,99,0.0,1.0,71,0.00,,,0.00,,2013-03-30 13:32:00,
2013-03-30 09:43:00,37.0,28.0,30.26,East,99,0.0,1.0,71,0.00,,,0.00,,2013-03-30 13:43:00,
2013-03-30 09:52:00,39.0,30.0,30.26,East,96,0.0,1.0,70,0.00,,,0.00,,2013-03-30 13:52:00,
2013-03-30 10:03:00,40.0,30.0,30.26,ESE,113,0.0,0.0,66,0.00,,,0.00,,2013-03-30 14:03:00,
2013-03-30 10:12:00,40.0,30.0,30.26,ESE,113,0.0,0.0,66,0.00,,,0.00,,2013-03-30 14:12:00,
2013-03-30 10:23:00,43.0,28.0,30.25,SW,235,1.0,2.0,55,0.00,,,0.00,,2013-03-30 14:23:00,
2013-03-30 10:32:00,44.0,28.0,30.25,SE,129,0.0,2.0,54,0.00,,,0.00,,2013-03-30 14:32:00,
2013-03-30 10:42:00,44.0,28.0,30.25,SE,129,0.0,2.0,54,0.00,,,0.00,,2013-03-30 14:42:00,
2013-03-30 10:53:00,46.0,26.0,30.24,West,276,1.0,4.0,46,0.00,,,0.00,,2013-03-30 14:53:00,
2013-03-30 11:03:00,46.0,25.0,30.24,SSE,158,1.0,4.0,43,0.00,,,0.00,,2013-03-30 15:03:00,
2013-03-30 11:12:00,46.0,25.0,30.24,SSE,158,1.0,4.0,43,0.00,,,0.00,,2013-03-30 15:12:00,
2013-03-30 11:23:00,46.0,24.0,30.23,NE,40,0.0,4.0,42,0.00,,,0.00,,2013-03-30 15:23:00,
2013-03-30 11:34:00,48.0,24.0,30.23,South,180,1.0,5.0,39,0.00,,,0.00,,2013-03-30 15:34:00,
2013-03-30 11:43:00,48.0,24.0,30.23,South,180,1.0,5.0,39,0.00,,,0.00,,2013-03-30 15:43:00,
2013-03-30 11:53:00,48.0,24.0,30.22,WSW,256,2.0,5.0,38,0.00,,,0.00,,2013-03-30 15:53:00,
2013-03-30 12:03:00,48.0,24.0,30.22,WNW,288,1.0,6.0,38,0.00,,,0.00,,2013-03-30 16:03:00,
2013-03-30 12:13:00,48.0,24.0,30.22,WNW,296,2.0,6.0,38,0.00,,,0.00,,2013-03-30 16:13:00,
2013-03-30 12:23:00,48.0,24.0,30.22,WNW,296,2.0,6.0,38,0.00,,,0.00,,2013-03-30 16:23:00,
2013-03-30 12:33:00,49.0,23.0,30.21,WNW,297,3.0,6.0,35,0.00,,,0.00,,2013-03-30 16:33:00,
2013-03-30 12:43:00,49.0,23.0,30.21,WNW,297,3.0,6.0,35,0.00,,,0.00,,2013-03-30 16:43:00,
2013-03-30 12:52:00,50.0,23.0,30.20,South,172,2.0,8.0,34,0.00,,,0.00,,2013-03-30 16:52:00,
2013-03-30 13:02:00,50.0,23.0,30.19,SW,226,2.0,8.0,34,0.00,,,0.00,,2013-03-30 17:02:00,
2013-03-30 13:13:00,50.0,23.0,30.19,SW,226,2.0,8.0,34,0.00,,,0.00,,2013-03-30 17:13:00,
2013-03-30 13:23:00,50.0,23.0,30.19,North,11,2.0,7.0,34,0.00,,,0.00,,2013-03-30 17:23:00,
2013-03-30 13:32:00,52.0,23.0,30.18,NNE,23,2.0,6.0,32,0.00,,,0.00,,2013-03-30 17:32:00,
2013-03-30 13:42:00,52.0,23.0,30.18,NNE,23,2.0,6.0,32,0.00,,,0.00,,2013-03-30 17:42:00,
2013-03-30 13:53:00,52.0,24.0,30.17,WNW,297,2.0,6.0,33,0.00,,,0.00,,2013-03-30 17:53:00,
2013-03-30 14:03:00,53.0,23.0,30.17,WSW,256,3.0,7.0,31,0.00,,,0.00,,2013-03-30 18:03:00,
2013-03-30 14:13:00,52.0,23.0,30.16,West,278,4.0,11.0,32,0.00,,,0.00,,2013-03-30 18:13:00,
2013-03-30 14:22:00,52.0,23.0,30.16,West,278,4.0,11.0,32,0.00,,,0.00,,2013-03-30 18:22:00,
2013-03-30 14:33:00,51.0,21.0,30.16,NW,318,3.0,7.0,31,0.00,,,0.00,,2013-03-30 18:33:00,
2013-03-30 14:42:00,51.0,21.0,30.16,NW,318,3.0,7.0,31,0.00,,,0.00,,2013-03-30 18:42:00,
2013-03-30 14:53:00,53.0,23.0,30.16,NE,51,4.0,12.0,31,0.00,,,0.00,,2013-03-30 18:53:00,
2013-03-30 15:03:00,52.0,22.0,30.16,West,267,5.0,12.0,31,0.00,,,0.00,,2013-03-30 19:03:00,
2013-03-30 15:13:00,52.0,22.0,30.16,West,267,5.0,12.0,31,0.00,,,0.00,,2013-03-30 19:13:00,
2013-03-30 15:22:00,52.0,22.0,30.15,North,5,4.0,13.0,30,0.00,,,0.00,,2013-03-30 19:22:00,
2013-03-30 15:32:00,53.0,22.0,30.14,WSW,253,4.0,11.0,29,0.00,,,0.00,,2013-03-30 19:32:00,
2013-03-30 15:42:00,53.0,22.0,30.14,WSW,253,4.0,11.0,29,0.00,,,0.00,,2013-03-30 19:42:00,
2013-03-30 15:53:00,54.0,22.0,30.14,WSW,246,3.0,11.0,28,0.00,,,0.00,,2013-03-30 19:53:00,
2013-03-30 16:02:00,54.0,23.0,30.13,West,260,3.0,8.0,30,0.00,,,0.00,,2013-03-30 20:02:00,
2013-03-30 16:12:00,54.0,23.0,30.13,West,260,3.0,8.0,30,0.00,,,0.00,,2013-03-30 20:12:00,
2013-03-30 16:22:00,54.0,22.0,30.12,NW,304,3.0,11.0,29,0.00,,,0.00,,2013-03-30 20:22:00,
2013-03-30 16:33:00,54.0,22.0,30.11,WSW,238,2.0,8.0,29,0.00,,,0.00,,2013-03-30 20:33:00,
2013-03-30 16:42:00,54.0,22.0,30.11,WSW,238,2.0,8.0,29,0.00,,,0.00,,2013-03-30 20:42:00,
2013-03-30 16:53:00,55.0,23.0,30.11,SSW,212,2.0,9.0,29,0.00,,,0.00,,2013-03-30 20:53:00,
2013-03-30 17:02:00,56.0,23.0,30.11,WNW,296,1.0,7.0,28,0.00,,,0.00,,2013-03-30 21:02:00,
2013-03-30 17:12:00,56.0,23.0,30.11,WNW,296,1.0,7.0,28,0.00,,,0.00,,2013-03-30 21:12:00,
2013-03-30 17:23:00,55.0,23.0,30.10,ESE,102,1.0,5.0,28,0.00,,,0.00,,2013-03-30 21:23:00,
2013-03-30 17:34:00,56.0,23.0,30.09,WSW,238,2.0,9.0,27,0.00,,,0.00,,2013-03-30 21:34:00,
2013-03-30 17:43:00,56.0,23.0,30.09,WSW,238,2.0,9.0,27,0.00,,,0.00,,2013-03-30 21:43:00,
2013-03-30 17:53:00,56.0,22.0,30.09,South,172,3.0,9.0,26,0.00,,,0.00,,2013-03-30 21:53:00,
2013-03-30 18:03:00,55.0,22.0,30.09,SSE,152,2.0,7.0,27,0.00,,,0.00,,2013-03-30 22:03:00,
2013-03-30 18:13:00,55.0,22.0,30.09,SSE,152,2.0,7.0,27,0.00,,,0.00,,2013-03-30 22:13:00,
2013-03-30 18:23:00,55.0,22.0,30.09,West,262,2.0,8.0,27,0.00,,,0.00,,2013-03-30 22:23:00,
2013-03-30 18:33:00,55.0,23.0,30.09,SSW,205,3.0,7.0,28,0.00,,,0.00,,2013-03-30 22:33:00,
2013-03-30 18:43:00,55.0,23.0,30.09,SSW,205,3.0,7.0,28,0.00,,,0.00,,2013-03-30 22:43:00,
2013-03-30 18:54:00,54.0,22.0,30.08,South,181,3.0,10.0,28,0.00,,,0.00,,2013-03-30 22:54:00,
2013-03-30 19:02:00,54.0,22.0,30.08,WSW,257,1.0,4.0,29,0.00,,,0.00,,2013-03-30 23:02:00,
2013-03-30 19:12:00,54.0,22.0,30.08,WSW,257,1.0,4.0,29,0.00,,,0.00,,2013-03-30 23:12:00,
2013-03-30 19:22:00,53.0,22.0,30.08,SSW,205,2.0,6.0,29,0.00,,,0.00,,2013-03-30 23:22:00,
2013-03-30 19:33:00,53.0,22.0,30.08,SW,236,0.0,6.0,29,0.00,,,0.00,,2013-03-30 23:33:00,
2013-03-30 19:42:00,53.0,22.0,30.08,SW,236,0.0,6.0,29,0.00,,,0.00,,2013-03-30 23:42:00,
2013-03-30 19:53:00,52.0,22.0,30.08,SW,218,0.0,2.0,31,0.00,,,0.00,,2013-03-30 23:53:00,
2013-03-30 20:02:00,49.0,27.0,30.08,WSW,251,0.0,0.0,43,0.00,,,0.00,,2013-03-31 00:02:00,
2013-03-30 20:12:00,49.0,27.0,30.08,WSW,251,0.0,0.0,43,0.00,,,0.00,,2013-03-31 00:12:00,
2013-03-30 20:22:00,47.0,28.0,30.07,WSW,257,0.0,0.0,47,0.00,,,0.00,,2013-03-31 00:22:00,
2013-03-30 20:32:00,46.0,28.0,30.08,West,264,0.0,0.0,50,0.00,,,0.00,,2013-03-31 00:32:00,
2013-03-30 20:42:00,46.0,28.0,30.08,West,264,0.0,0.0,50,0.00,,,0.00,,2013-03-31 00:42:00,
2013-03-30 20:53:00,45.0,28.0,30.07,West,263,0.0,0.0,51,0.00,,,0.00,,2013-03-31 00:53:00,
2013-03-30 21:02:00,44.0,28.0,30.07,West,277,0.0,0.0,53,0.00,,,0.00,,2013-03-31 01:02:00,
2013-03-30 21:12:00,44.0,28.0,30.07,West,277,0.0,0.0,53,0.00,,,0.00,,2013-03-31 01:12:00,
2013-03-30 21:22:00,43.0,27.0,30.07,West,276,0.0,0.0,53,0.00,,,0.00,,2013-03-31 01:22:00,
2013-03-30 21:32:00,43.0,28.0,30.07,West,272,0.0,0.0,54,0.00,,,0.00,,2013-03-31 01:32:00,
2013-03-30 21:42:00,43.0,28.0,30.07,West,272,0.0,0.0,54,0.00,,,0.00,,2013-03-31 01:42:00,
2013-03-30 21:52:00,42.0,28.0,30.07,West,267,0.0,0.0,57,0.00,,,0.00,,2013-03-31 01:52:00,
2013-03-30 22:02:00,41.0,28.0,30.06,West,264,0.0,0.0,59,0.00,,,0.00,,2013-03-31 02:02:00,
2013-03-30 22:13:00,41.0,28.0,30.06,West,264,0.0,0.0,59,0.00,,,0.00,,2013-03-31 02:13:00,
2013-03-30 22:22:00,40.0,27.0,30.06,West,260,0.0,0.0,59,0.00,,,0.00,,2013-03-31 02:22:00,
2013-03-30 22:32:00,40.0,28.0,30.06,WSW,257,0.0,0.0,61,0.00,,,0.00,,2013-03-31 02:32:00,
2013-03-30 22:43:00,40.0,28.0,30.06,WSW,257,0.0,0.0,61,0.00,,,0.00,,2013-03-31 02:43:00,
2013-03-30 22:52:00,39.0,28.0,30.07,WSW,253,0.0,0.0,64,0.00,,,0.00,,2013-03-31 02:52:00,
2013-03-30 23:02:00,39.0,28.0,30.06,WSW,256,0.0,0.0,64,0.00,,,0.00,,2013-03-31 03:02:00,
2013-03-30 23:13:00,39.0,28.0,30.06,WSW,256,0.0,0.0,64,0.00,,,0.00,,2013-03-31 03:13:00,
2013-03-30 23:22:00,38.0,28.0,30.06,WSW,256,0.0,0.0,66,0.00,,,0.00,,2013-03-31 03:22:00,
2013-03-30 23:33:00,38.0,28.0,30.06,WSW,256,0.0,0.0,67,0.00,,,0.00,,2013-03-31 03:33:00,
2013-03-30 23:43:00,38.0,28.0,30.06,WSW,256,0.0,0.0,67,0.00,,,0.00,,2013-03-31 03:43:00,
2013-03-30 23:54:00,38.0,28.0,30.04,WSW,255,0.0,0.0,68,0.00,,,0.00,,2013-03-31 03:54:00,